EPWAEPRZ

Guest
Details From EPWA - WARSZAWA Okecie
To EPRZ - JASIONKA
Flight Number -
Tags decoded
Created
Modified
Stats Distance 146 nm / 270 km
Max Altitude 0 ft / 0 m
Waypoints 4
Social Downloads 0
Likes 0
Share VATSIM

Download

Looking for another format? Having issues loading an existing format? Contact us
Advertisement - Login to hide

Notes

Requested: EPWA XIMBA N195 VELAX Q258 EPRZ Unmatched points: N195 Q258

Route

EPWA XIMBA VELAX EPRZ

ID Type Via Altitude Latitude Longitude Leg Dist Tot Dist Heading (true) Name
O EPWA APT - 0 ft / 0 m 52.16509˚ 20.96692˚ - 0 nm - WARSZAWA Okecie
XIMBA FIX - 0 ft / 0 m 51.65583˚ 21.42778˚ 35 nm 35 nm 151° / 151° -
VELAX FIX - 0 ft / 0 m 50.48889˚ 22.52056˚ 81 nm 116 nm 149° / 150° -
O EPRZ APT - 0 ft / 0 m 50.10761˚ 22.03610˚ 29 nm 145 nm 219° / 219° JASIONKA

Altitude Profile

Advertisement - Login to hide

EPWA

Details ICAO EPWA (WAW)
Name WARSZAWA Okecie
Region Poland
Timezone Europe/Warsaw (UTC+2.0)
Stats Elevation 328 ft / 100 m (AMSL)
Location 52.165091° 20.966923°
Runways 2
Magnetic Variation 5.858° E

METAR

EPWA 230400Z 32003KT CAVOK 12/12 Q1019 NOSIG

Decode

TAF

TAF EPWA 230230Z 2303/2403 VRB03KT CAVOK PROB40 2303/2304 3500 BR BECMG 2306/2309 01010KT

Decode

Departure Runways

ID Width Length Bearing (true) Bearing (mag) Surface Threshold Offset Overrun Length
11 164 ft / 50 m 9,163 ft / 2,793 m 114.64° 108.78° Asphalt 0 ft / 0 m 476 ft / 145 m
15 197 ft / 60 m 12,112 ft / 3,692 m 151.85° 145.99° Asphalt 0 ft / 0 m 0 ft / 0 m
29 164 ft / 50 m 9,163 ft / 2,793 m 294.67° 288.81° Asphalt 1,608 ft / 490 m 0 ft / 0 m
33 197 ft / 60 m 12,112 ft / 3,692 m 331.87° 326.01° Asphalt 0 ft / 0 m 0 ft / 0 m

EPRZ

Details ICAO EPRZ (RZE)
Name JASIONKA
Region Poland
Timezone Europe/Warsaw (UTC+2.0)
Stats Elevation 675 ft / 206 m (AMSL)
Location 50.107614° 22.036096°
Runways 2
Magnetic Variation 5.778° E

METAR

EPRZ 230400Z VRB01KT CAVOK 12/11 Q1019

Decode

TAF

TAF EPRZ 222330Z 2300/2324 VRB02KT CAVOK TEMPO 2310/2324 VRB20G30KT 4000 TSRA BKN040CB

Decode

Destination Runways

ID Width Length Bearing (true) Bearing (mag) Surface Threshold Offset Overrun Length
08 1,050 ft / 320 m 2,709 ft / 826 m 80.74° 74.96° Grass 0 ft / 0 m 0 ft / 0 m
09 148 ft / 45 m 10,469 ft / 3,191 m 91.16° 85.38° Concrete 0 ft / 0 m 0 ft / 0 m
26 1,050 ft / 320 m 2,709 ft / 826 m 260.74° 254.96° Grass 0 ft / 0 m 0 ft / 0 m
27 148 ft / 45 m 10,469 ft / 3,191 m 271.20° 265.42° Concrete 2,297 ft / 700 m 0 ft / 0 m

Approach Navaids

Runway Type Ident Frequency Range Bearing (true) Bearing (mag) Slope Elevation
27 Localiser RZW 110.30 MHz 18 nm / 33 km 271.15° 265.37° - 675 ft / 206 m (AMSL)
27 Glidescope RZW 110.30 MHz 10 nm / 19 km 271.18° 265.40° 2.90° 675 ft / 206 m (AMSL)
27 DME RZW 110.30 MHz 18 nm / 33 km - - - 787 ft / 240 m (AMSL)

Popular Alternatives